sensor_id;sensor_type;location;lat;lon;timestamp;temperature;humidity
6439;DHT22;3252;52.540;13.290;2022-08-19T00:01:53;22.10;99.90
6439;DHT22;3252;52.540;13.290;2022-08-19T00:03:58;22.00;99.90
6439;DHT22;3252;52.540;13.290;2022-08-19T00:06:00;22.00;99.90
6439;DHT22;3252;52.540;13.290;2022-08-19T00:08:03;22.00;99.90
6439;DHT22;3252;52.540;13.290;2022-08-19T00:10:06;22.00;99.90
6439;DHT22;3252;52.540;13.290;2022-08-19T00:12:09;22.00;99.90
6439;DHT22;3252;52.540;13.290;2022-08-19T00:14:13;22.00;99.90
6439;DHT22;3252;52.540;13.290;2022-08-19T00:16:16;22.00;99.90
6439;DHT22;3252;52.540;13.290;2022-08-19T00:18:18;22.00;99.90
6439;DHT22;3252;52.540;13.290;2022-08-19T00:20:22;22.00;99.90
6439;DHT22;3252;52.540;13.290;2022-08-19T00:22:24;22.00;99.90
6439;DHT22;3252;52.540;13.290;2022-08-19T00:24:27;22.00;99.90
6439;DHT22;3252;52.540;13.290;2022-08-19T00:26:30;22.00;99.90
6439;DHT22;3252;52.540;13.290;2022-08-19T00:28:33;22.00;99.90
6439;DHT22;3252;52.540;13.290;2022-08-19T00:30:36;22.00;99.90
6439;DHT22;3252;52.540;13.290;2022-08-19T00:32:38;21.90;99.90
6439;DHT22;3252;52.540;13.290;2022-08-19T00:34:41;21.90;99.90
6439;DHT22;3252;52.540;13.290;2022-08-19T00:36:45;22.00;99.90
6439;DHT22;3252;52.540;13.290;2022-08-19T00:38:47;22.00;99.90
6439;DHT22;3252;52.540;13.290;2022-08-19T00:40:49;22.00;99.90
6439;DHT22;3252;52.540;13.290;2022-08-19T00:42:51;21.90;99.90
6439;DHT22;3252;52.540;13.290;2022-08-19T00:44:54;21.90;99.90
6439;DHT22;3252;52.540;13.290;2022-08-19T00:46:58;21.90;99.90
6439;DHT22;3252;52.540;13.290;2022-08-19T00:49:10;21.90;99.90
6439;DHT22;3252;52.540;13.290;2022-08-19T00:51:15;21.90;99.90
6439;DHT22;3252;52.540;13.290;2022-08-19T00:53:20;21.90;99.90
6439;DHT22;3252;52.540;13.290;2022-08-19T00:55:25;21.90;99.90
6439;DHT22;3252;52.540;13.290;2022-08-19T00:57:35;21.90;99.90
6439;DHT22;3252;52.540;13.290;2022-08-19T00:59:39;21.90;99.90
6439;DHT22;3252;52.540;13.290;2022-08-19T01:01:42;21.90;99.90
6439;DHT22;3252;52.540;13.290;2022-08-19T01:03:45;21.90;99.90
6439;DHT22;3252;52.540;13.290;2022-08-19T01:05:48;21.90;99.90
6439;DHT22;3252;52.540;13.290;2022-08-19T01:07:51;21.90;99.90
6439;DHT22;3252;52.540;13.290;2022-08-19T01:09:55;21.90;99.90
6439;DHT22;3252;52.540;13.290;2022-08-19T01:11:58;21.90;99.90
6439;DHT22;3252;52.540;13.290;2022-08-19T01:14:00;21.90;99.90
6439;DHT22;3252;52.540;13.290;2022-08-19T01:16:07;21.90;99.90
6439;DHT22;3252;52.540;13.290;2022-08-19T01:18:13;21.90;99.90
6439;DHT22;3252;52.540;13.290;2022-08-19T01:20:19;21.90;99.90
6439;DHT22;3252;52.540;13.290;2022-08-19T01:22:30;21.80;99.90
6439;DHT22;3252;52.540;13.290;2022-08-19T01:24:34;21.80;99.90
6439;DHT22;3252;52.540;13.290;2022-08-19T01:26:40;21.80;99.90
6439;DHT22;3252;52.540;13.290;2022-08-19T01:28:46;21.70;99.90
6439;DHT22;3252;52.540;13.290;2022-08-19T01:30:48;21.70;99.90
6439;DHT22;3252;52.540;13.290;2022-08-19T01:32:51;21.70;99.90
6439;DHT22;3252;52.540;13.290;2022-08-19T01:34:53;21.80;99.90
6439;DHT22;3252;52.540;13.290;2022-08-19T01:36:55;21.70;99.90
6439;DHT22;3252;52.540;13.290;2022-08-19T01:38:59;21.70;99.90
6439;DHT22;3252;52.540;13.290;2022-08-19T01:41:01;21.70;99.90
6439;DHT22;3252;52.540;13.290;2022-08-19T01:43:04;21.70;99.90
6439;DHT22;3252;52.540;13.290;2022-08-19T01:45:07;21.70;99.90
6439;DHT22;3252;52.540;13.290;2022-08-19T01:47:09;21.70;99.90
6439;DHT22;3252;52.540;13.290;2022-08-19T01:49:11;21.70;99.90
6439;DHT22;3252;52.540;13.290;2022-08-19T01:51:14;21.70;99.90
6439;DHT22;3252;52.540;13.290;2022-08-19T01:53:16;21.70;99.90
6439;DHT22;3252;52.540;13.290;2022-08-19T01:55:21;21.70;99.90
6439;DHT22;3252;52.540;13.290;2022-08-19T01:57:24;21.70;99.90
6439;DHT22;3252;52.540;13.290;2022-08-19T01:59:27;21.70;99.90
6439;DHT22;3252;52.540;13.290;2022-08-19T02:01:29;21.70;99.90
6439;DHT22;3252;52.540;13.290;2022-08-19T02:03:33;21.70;99.90
6439;DHT22;3252;52.540;13.290;2022-08-19T02:05:36;21.70;99.90
6439;DHT22;3252;52.540;13.290;2022-08-19T02:07:38;21.70;99.90
6439;DHT22;3252;52.540;13.290;2022-08-19T02:09:41;21.70;99.90
6439;DHT22;3252;52.540;13.290;2022-08-19T02:11:45;21.70;99.90
6439;DHT22;3252;52.540;13.290;2022-08-19T02:13:47;21.70;99.90
6439;DHT22;3252;52.540;13.290;2022-08-19T02:15:50;21.60;99.90
6439;DHT22;3252;52.540;13.290;2022-08-19T02:17:52;21.60;99.90
6439;DHT22;3252;52.540;13.290;2022-08-19T02:19:54;21.60;99.90
6439;DHT22;3252;52.540;13.290;2022-08-19T02:21:57;21.60;99.90
6439;DHT22;3252;52.540;13.290;2022-08-19T02:24:00;21.60;99.90
6439;DHT22;3252;52.540;13.290;2022-08-19T02:26:02;21.60;99.90
6439;DHT22;3252;52.540;13.290;2022-08-19T02:28:07;21.60;99.90
6439;DHT22;3252;52.540;13.290;2022-08-19T02:30:16;21.60;99.90
6439;DHT22;3252;52.540;13.290;2022-08-19T02:32:19;21.60;99.90
6439;DHT22;3252;52.540;13.290;2022-08-19T02:34:22;21.60;99.90
6439;DHT22;3252;52.540;13.290;2022-08-19T02:36:25;21.60;99.90
6439;DHT22;3252;52.540;13.290;2022-08-19T02:38:28;21.60;99.90
6439;DHT22;3252;52.540;13.290;2022-08-19T02:40:30;21.60;99.90
6439;DHT22;3252;52.540;13.290;2022-08-19T02:42:34;21.50;99.90
6439;DHT22;3252;52.540;13.290;2022-08-19T02:44:38;21.50;99.90
6439;DHT22;3252;52.540;13.290;2022-08-19T02:46:40;21.50;99.90
6439;DHT22;3252;52.540;13.290;2022-08-19T02:48:41;21.40;99.90
6439;DHT22;3252;52.540;13.290;2022-08-19T02:50:44;21.40;99.90
6439;DHT22;3252;52.540;13.290;2022-08-19T02:52:46;21.40;99.90
6439;DHT22;3252;52.540;13.290;2022-08-19T02:54:48;21.40;99.90
6439;DHT22;3252;52.540;13.290;2022-08-19T02:56:51;21.30;99.90
6439;DHT22;3252;52.540;13.290;2022-08-19T02:58:53;21.40;99.90
6439;DHT22;3252;52.540;13.290;2022-08-19T03:00:57;21.30;99.90
6439;DHT22;3252;52.540;13.290;2022-08-19T03:02:59;21.30;99.90
6439;DHT22;3252;52.540;13.290;2022-08-19T03:05:04;21.30;99.90
6439;DHT22;3252;52.540;13.290;2022-08-19T03:07:07;21.30;99.90
6439;DHT22;3252;52.540;13.290;2022-08-19T03:09:10;21.20;99.90
6439;DHT22;3252;52.540;13.290;2022-08-19T03:11:14;21.20;99.90
6439;DHT22;3252;52.540;13.290;2022-08-19T03:13:17;21.20;99.90
6439;DHT22;3252;52.540;13.290;2022-08-19T03:15:20;21.10;99.90
6439;DHT22;3252;52.540;13.290;2022-08-19T03:17:23;21.10;99.90
6439;DHT22;3252;52.540;13.290;2022-08-19T03:19:26;21.10;99.90
6439;DHT22;3252;52.540;13.290;2022-08-19T03:21:30;21.10;99.90
6439;DHT22;3252;52.540;13.290;2022-08-19T03:23:33;21.10;99.90
6439;DHT22;3252;52.540;13.290;2022-08-19T03:25:37;21.10;99.90
6439;DHT22;3252;52.540;13.290;2022-08-19T03:27:39;21.10;99.90
6439;DHT22;3252;52.540;13.290;2022-08-19T03:29:41;21.20;99.90
6439;DHT22;3252;52.540;13.290;2022-08-19T03:31:44;21.20;99.90
6439;DHT22;3252;52.540;13.290;2022-08-19T03:33:49;21.20;99.90
6439;DHT22;3252;52.540;13.290;2022-08-19T03:36:05;21.20;99.90
6439;DHT22;3252;52.540;13.290;2022-08-19T03:38:08;21.20;99.90
6439;DHT22;3252;52.540;13.290;2022-08-19T03:40:10;21.20;99.90
6439;DHT22;3252;52.540;13.290;2022-08-19T03:42:12;21.20;99.90
6439;DHT22;3252;52.540;13.290;2022-08-19T03:44:17;21.20;99.90
6439;DHT22;3252;52.540;13.290;2022-08-19T03:46:22;21.20;99.90
6439;DHT22;3252;52.540;13.290;2022-08-19T03:48:25;21.10;99.90
6439;DHT22;3252;52.540;13.290;2022-08-19T03:50:28;21.20;99.90
6439;DHT22;3252;52.540;13.290;2022-08-19T03:52:30;21.10;99.90
6439;DHT22;3252;52.540;13.290;2022-08-19T03:54:33;21.10;99.90
6439;DHT22;3252;52.540;13.290;2022-08-19T03:56:37;21.10;99.90
6439;DHT22;3252;52.540;13.290;2022-08-19T03:58:41;21.10;99.90
6439;DHT22;3252;52.540;13.290;2022-08-19T04:00:43;21.00;99.90
6439;DHT22;3252;52.540;13.290;2022-08-19T04:02:45;21.00;99.90
6439;DHT22;3252;52.540;13.290;2022-08-19T04:04:47;21.00;99.90
6439;DHT22;3252;52.540;13.290;2022-08-19T04:06:51;21.00;99.90
6439;DHT22;3252;52.540;13.290;2022-08-19T04:08:55;21.00;99.90
6439;DHT22;3252;52.540;13.290;2022-08-19T04:10:58;21.00;99.90
6439;DHT22;3252;52.540;13.290;2022-08-19T04:13:01;20.90;99.90
6439;DHT22;3252;52.540;13.290;2022-08-19T04:15:05;20.90;99.90
6439;DHT22;3252;52.540;13.290;2022-08-19T04:17:08;20.90;99.90
6439;DHT22;3252;52.540;13.290;2022-08-19T04:19:12;20.90;99.90
6439;DHT22;3252;52.540;13.290;2022-08-19T04:21:16;20.90;99.90
6439;DHT22;3252;52.540;13.290;2022-08-19T04:23:20;21.00;99.90
6439;DHT22;3252;52.540;13.290;2022-08-19T04:25:22;21.00;99.90
6439;DHT22;3252;52.540;13.290;2022-08-19T04:27:24;21.00;99.90
6439;DHT22;3252;52.540;13.290;2022-08-19T04:29:27;21.00;99.90
6439;DHT22;3252;52.540;13.290;2022-08-19T04:31:32;21.00;99.90
6439;DHT22;3252;52.540;13.290;2022-08-19T04:33:36;21.00;99.90
6439;DHT22;3252;52.540;13.290;2022-08-19T04:35:39;21.10;99.90
6439;DHT22;3252;52.540;13.290;2022-08-19T04:37:41;21.10;99.90
6439;DHT22;3252;52.540;13.290;2022-08-19T04:39:45;21.00;99.90
6439;DHT22;3252;52.540;13.290;2022-08-19T04:42:04;21.10;99.90
6439;DHT22;3252;52.540;13.290;2022-08-19T04:44:24;21.10;99.90
6439;DHT22;3252;52.540;13.290;2022-08-19T04:46:26;21.10;99.90
6439;DHT22;3252;52.540;13.290;2022-08-19T04:48:30;21.10;99.90
6439;DHT22;3252;52.540;13.290;2022-08-19T04:50:32;21.10;99.90
6439;DHT22;3252;52.540;13.290;2022-08-19T04:52:36;21.10;99.90
6439;DHT22;3252;52.540;13.290;2022-08-19T04:54:40;21.00;99.90
6439;DHT22;3252;52.540;13.290;2022-08-19T04:56:48;21.10;99.90
6439;DHT22;3252;52.540;13.290;2022-08-19T04:58:52;21.10;99.90
6439;DHT22;3252;52.540;13.290;2022-08-19T05:00:55;21.10;99.90
6439;DHT22;3252;52.540;13.290;2022-08-19T05:02:57;21.10;99.90
6439;DHT22;3252;52.540;13.290;2022-08-19T05:04:59;21.10;99.90
6439;DHT22;3252;52.540;13.290;2022-08-19T05:07:01;21.00;99.90
6439;DHT22;3252;52.540;13.290;2022-08-19T05:09:04;21.00;99.90
6439;DHT22;3252;52.540;13.290;2022-08-19T05:11:09;21.00;99.90
6439;DHT22;3252;52.540;13.290;2022-08-19T05:13:13;21.00;99.90
6439;DHT22;3252;52.540;13.290;2022-08-19T05:15:15;20.90;99.90
6439;DHT22;3252;52.540;13.290;2022-08-19T05:17:19;21.00;99.90
6439;DHT22;3252;52.540;13.290;2022-08-19T05:19:21;21.00;99.90
6439;DHT22;3252;52.540;13.290;2022-08-19T05:21:42;21.00;99.90
6439;DHT22;3252;52.540;13.290;2022-08-19T05:24:03;21.00;99.90
6439;DHT22;3252;52.540;13.290;2022-08-19T05:26:09;21.10;99.90
6439;DHT22;3252;52.540;13.290;2022-08-19T05:28:13;21.10;99.90
6439;DHT22;3252;52.540;13.290;2022-08-19T05:30:16;21.10;99.90
6439;DHT22;3252;52.540;13.290;2022-08-19T05:32:19;21.20;99.90
6439;DHT22;3252;52.540;13.290;2022-08-19T05:34:23;21.20;99.90
6439;DHT22;3252;52.540;13.290;2022-08-19T05:36:27;21.20;99.90
6439;DHT22;3252;52.540;13.290;2022-08-19T05:38:29;21.20;99.90
6439;DHT22;3252;52.540;13.290;2022-08-19T05:40:33;21.30;99.90
6439;DHT22;3252;52.540;13.290;2022-08-19T05:42:36;21.30;99.90
6439;DHT22;3252;52.540;13.290;2022-08-19T05:44:42;21.30;99.90
6439;DHT22;3252;52.540;13.290;2022-08-19T05:46:45;21.40;99.90
6439;DHT22;3252;52.540;13.290;2022-08-19T05:48:48;21.40;99.90
6439;DHT22;3252;52.540;13.290;2022-08-19T05:50:50;21.40;99.90
6439;DHT22;3252;52.540;13.290;2022-08-19T05:52:52;21.50;99.90
6439;DHT22;3252;52.540;13.290;2022-08-19T05:54:54;21.50;99.90
6439;DHT22;3252;52.540;13.290;2022-08-19T05:56:57;21.60;99.90
6439;DHT22;3252;52.540;13.290;2022-08-19T05:58:59;21.60;99.90
6439;DHT22;3252;52.540;13.290;2022-08-19T06:01:03;21.60;99.90
6439;DHT22;3252;52.540;13.290;2022-08-19T06:03:06;21.70;99.90
6439;DHT22;3252;52.540;13.290;2022-08-19T06:05:09;21.70;99.90
6439;DHT22;3252;52.540;13.290;2022-08-19T06:07:13;21.70;99.90
6439;DHT22;3252;52.540;13.290;2022-08-19T06:09:17;21.80;99.90
6439;DHT22;3252;52.540;13.290;2022-08-19T06:11:21;21.80;99.90
6439;DHT22;3252;52.540;13.290;2022-08-19T06:13:23;21.80;99.90
6439;DHT22;3252;52.540;13.290;2022-08-19T06:15:26;21.90;99.90
6439;DHT22;3252;52.540;13.290;2022-08-19T06:17:30;21.90;99.90
6439;DHT22;3252;52.540;13.290;2022-08-19T06:19:32;21.90;99.90
6439;DHT22;3252;52.540;13.290;2022-08-19T06:21:36;21.90;99.90
6439;DHT22;3252;52.540;13.290;2022-08-19T06:23:38;22.00;99.90
6439;DHT22;3252;52.540;13.290;2022-08-19T06:25:41;22.00;99.90
6439;DHT22;3252;52.540;13.290;2022-08-19T06:27:43;22.00;99.90
6439;DHT22;3252;52.540;13.290;2022-08-19T06:29:46;22.00;99.90
6439;DHT22;3252;52.540;13.290;2022-08-19T06:31:50;22.10;99.90
6439;DHT22;3252;52.540;13.290;2022-08-19T06:33:54;22.10;99.90
6439;DHT22;3252;52.540;13.290;2022-08-19T06:35:56;22.10;99.90
6439;DHT22;3252;52.540;13.290;2022-08-19T06:37:58;22.20;99.90
6439;DHT22;3252;52.540;13.290;2022-08-19T06:40:01;22.20;99.90
6439;DHT22;3252;52.540;13.290;2022-08-19T06:42:04;22.20;99.90
6439;DHT22;3252;52.540;13.290;2022-08-19T06:44:10;22.20;99.90
6439;DHT22;3252;52.540;13.290;2022-08-19T06:46:13;22.20;99.90
6439;DHT22;3252;52.540;13.290;2022-08-19T06:48:15;22.20;99.90
6439;DHT22;3252;52.540;13.290;2022-08-19T06:50:19;22.20;99.90
6439;DHT22;3252;52.540;13.290;2022-08-19T06:52:21;22.30;99.90
6439;DHT22;3252;52.540;13.290;2022-08-19T06:54:24;22.30;99.90
6439;DHT22;3252;52.540;13.290;2022-08-19T06:56:28;22.30;99.90
6439;DHT22;3252;52.540;13.290;2022-08-19T06:58:35;22.30;99.90
6439;DHT22;3252;52.540;13.290;2022-08-19T07:00:40;22.40;99.90
6439;DHT22;3252;52.540;13.290;2022-08-19T07:02:43;22.40;99.90
6439;DHT22;3252;52.540;13.290;2022-08-19T07:04:45;22.40;99.90
6439;DHT22;3252;52.540;13.290;2022-08-19T07:06:49;22.40;99.90
6439;DHT22;3252;52.540;13.290;2022-08-19T07:08:52;22.50;99.90
6439;DHT22;3252;52.540;13.290;2022-08-19T07:10:54;22.50;99.90
6439;DHT22;3252;52.540;13.290;2022-08-19T07:12:56;22.50;99.90
6439;DHT22;3252;52.540;13.290;2022-08-19T07:14:58;22.50;99.90
6439;DHT22;3252;52.540;13.290;2022-08-19T07:17:00;22.50;99.90
6439;DHT22;3252;52.540;13.290;2022-08-19T07:19:02;22.50;99.90
6439;DHT22;3252;52.540;13.290;2022-08-19T07:21:05;22.60;99.90
6439;DHT22;3252;52.540;13.290;2022-08-19T07:23:09;22.50;99.90
6439;DHT22;3252;52.540;13.290;2022-08-19T07:25:11;22.50;99.90
6439;DHT22;3252;52.540;13.290;2022-08-19T07:27:14;22.60;99.90
6439;DHT22;3252;52.540;13.290;2022-08-19T07:29:17;22.60;99.90
6439;DHT22;3252;52.540;13.290;2022-08-19T07:31:21;22.60;99.90
6439;DHT22;3252;52.540;13.290;2022-08-19T07:33:23;22.60;99.90
6439;DHT22;3252;52.540;13.290;2022-08-19T07:35:27;22.50;99.90
6439;DHT22;3252;52.540;13.290;2022-08-19T07:37:29;22.50;99.90
6439;DHT22;3252;52.540;13.290;2022-08-19T07:39:34;22.50;99.90
6439;DHT22;3252;52.540;13.290;2022-08-19T07:41:37;22.50;99.90
6439;DHT22;3252;52.540;13.290;2022-08-19T07:43:40;22.50;99.90
6439;DHT22;3252;52.540;13.290;2022-08-19T07:45:43;22.50;99.90
6439;DHT22;3252;52.540;13.290;2022-08-19T07:47:45;22.50;99.90
6439;DHT22;3252;52.540;13.290;2022-08-19T07:49:47;22.50;99.90
6439;DHT22;3252;52.540;13.290;2022-08-19T07:51:52;22.60;99.90
6439;DHT22;3252;52.540;13.290;2022-08-19T07:53:55;22.50;99.90
6439;DHT22;3252;52.540;13.290;2022-08-19T07:55:59;22.60;99.90
6439;DHT22;3252;52.540;13.290;2022-08-19T07:58:04;22.60;99.90
6439;DHT22;3252;52.540;13.290;2022-08-19T08:00:07;22.60;99.90
6439;DHT22;3252;52.540;13.290;2022-08-19T08:02:12;22.60;99.90
6439;DHT22;3252;52.540;13.290;2022-08-19T08:04:14;22.60;99.90
6439;DHT22;3252;52.540;13.290;2022-08-19T08:06:34;22.60;99.90
6439;DHT22;3252;52.540;13.290;2022-08-19T08:08:53;22.60;99.90
6439;DHT22;3252;52.540;13.290;2022-08-19T08:11:20;22.60;99.90
6439;DHT22;3252;52.540;13.290;2022-08-19T08:13:22;22.70;99.90
6439;DHT22;3252;52.540;13.290;2022-08-19T08:15:24;22.70;99.90
6439;DHT22;3252;52.540;13.290;2022-08-19T08:17:27;22.70;99.90
6439;DHT22;3252;52.540;13.290;2022-08-19T08:19:30;22.80;99.90
6439;DHT22;3252;52.540;13.290;2022-08-19T08:21:33;22.80;99.90
6439;DHT22;3252;52.540;13.290;2022-08-19T08:23:35;22.80;99.90
6439;DHT22;3252;52.540;13.290;2022-08-19T08:25:37;22.80;99.90
6439;DHT22;3252;52.540;13.290;2022-08-19T08:27:42;22.80;99.90
6439;DHT22;3252;52.540;13.290;2022-08-19T08:29:45;22.80;99.90
6439;DHT22;3252;52.540;13.290;2022-08-19T08:31:49;22.90;99.90
6439;DHT22;3252;52.540;13.290;2022-08-19T08:33:51;22.90;99.90
6439;DHT22;3252;52.540;13.290;2022-08-19T08:35:53;22.90;99.90
6439;DHT22;3252;52.540;13.290;2022-08-19T08:37:55;22.90;99.90
6439;DHT22;3252;52.540;13.290;2022-08-19T08:39:57;22.80;99.90
6439;DHT22;3252;52.540;13.290;2022-08-19T08:42:08;22.90;99.90
6439;DHT22;3252;52.540;13.290;2022-08-19T08:44:18;22.90;99.90
6439;DHT22;3252;52.540;13.290;2022-08-19T08:46:25;22.90;99.90
6439;DHT22;3252;52.540;13.290;2022-08-19T08:48:37;22.90;99.90
6439;DHT22;3252;52.540;13.290;2022-08-19T08:50:43;22.90;99.90
6439;DHT22;3252;52.540;13.290;2022-08-19T08:52:51;22.90;99.90
6439;DHT22;3252;52.540;13.290;2022-08-19T08:54:57;23.00;99.90
6439;DHT22;3252;52.540;13.290;2022-08-19T08:56:59;23.00;99.90
6439;DHT22;3252;52.540;13.290;2022-08-19T08:59:05;23.00;99.90
6439;DHT22;3252;52.540;13.290;2022-08-19T09:01:12;23.00;99.90
6439;DHT22;3252;52.540;13.290;2022-08-19T09:03:18;23.00;99.90
6439;DHT22;3252;52.540;13.290;2022-08-19T09:05:23;23.00;99.90
6439;DHT22;3252;52.540;13.290;2022-08-19T09:07:40;23.00;99.90
6439;DHT22;3252;52.540;13.290;2022-08-19T09:09:46;23.00;99.90
6439;DHT22;3252;52.540;13.290;2022-08-19T09:11:58;23.00;99.90
6439;DHT22;3252;52.540;13.290;2022-08-19T09:14:07;23.00;99.90
6439;DHT22;3252;52.540;13.290;2022-08-19T09:16:16;23.00;99.90
6439;DHT22;3252;52.540;13.290;2022-08-19T09:18:18;23.00;99.90
6439;DHT22;3252;52.540;13.290;2022-08-19T09:20:22;23.00;99.90
6439;DHT22;3252;52.540;13.290;2022-08-19T09:22:25;23.00;99.90
6439;DHT22;3252;52.540;13.290;2022-08-19T09:24:28;23.00;99.90
6439;DHT22;3252;52.540;13.290;2022-08-19T09:26:31;23.00;99.90
6439;DHT22;3252;52.540;13.290;2022-08-19T09:28:33;23.10;99.90
6439;DHT22;3252;52.540;13.290;2022-08-19T09:30:40;23.10;99.90
6439;DHT22;3252;52.540;13.290;2022-08-19T09:32:44;23.20;99.90
6439;DHT22;3252;52.540;13.290;2022-08-19T09:34:46;23.30;99.90
6439;DHT22;3252;52.540;13.290;2022-08-19T09:36:49;23.30;99.90
6439;DHT22;3252;52.540;13.290;2022-08-19T09:38:54;23.30;99.90
6439;DHT22;3252;52.540;13.290;2022-08-19T09:40:56;23.40;99.90
6439;DHT22;3252;52.540;13.290;2022-08-19T09:43:03;23.50;99.90
6439;DHT22;3252;52.540;13.290;2022-08-19T09:45:06;23.50;99.90
6439;DHT22;3252;52.540;13.290;2022-08-19T09:47:09;23.50;99.90
6439;DHT22;3252;52.540;13.290;2022-08-19T09:49:13;23.60;99.90
6439;DHT22;3252;52.540;13.290;2022-08-19T09:51:18;23.60;99.90
6439;DHT22;3252;52.540;13.290;2022-08-19T09:53:20;23.60;99.90
6439;DHT22;3252;52.540;13.290;2022-08-19T09:55:25;23.60;99.90
6439;DHT22;3252;52.540;13.290;2022-08-19T09:57:27;23.70;99.90
6439;DHT22;3252;52.540;13.290;2022-08-19T09:59:29;23.70;99.90
6439;DHT22;3252;52.540;13.290;2022-08-19T10:01:33;23.70;99.90
6439;DHT22;3252;52.540;13.290;2022-08-19T10:03:36;23.70;99.90
6439;DHT22;3252;52.540;13.290;2022-08-19T10:05:39;23.70;99.90
6439;DHT22;3252;52.540;13.290;2022-08-19T10:07:50;23.70;99.90
6439;DHT22;3252;52.540;13.290;2022-08-19T10:09:52;23.70;99.90
6439;DHT22;3252;52.540;13.290;2022-08-19T10:11:55;23.70;99.90
6439;DHT22;3252;52.540;13.290;2022-08-19T10:13:57;23.70;99.90
6439;DHT22;3252;52.540;13.290;2022-08-19T10:16:04;23.80;99.90
6439;DHT22;3252;52.540;13.290;2022-08-19T10:18:07;23.80;99.90
6439;DHT22;3252;52.540;13.290;2022-08-19T10:20:10;23.80;99.90
6439;DHT22;3252;52.540;13.290;2022-08-19T10:22:13;23.80;99.90
6439;DHT22;3252;52.540;13.290;2022-08-19T10:24:16;23.90;99.90
6439;DHT22;3252;52.540;13.290;2022-08-19T10:26:20;23.90;99.90
6439;DHT22;3252;52.540;13.290;2022-08-19T10:28:22;24.00;99.90
6439;DHT22;3252;52.540;13.290;2022-08-19T10:30:24;24.00;99.90
6439;DHT22;3252;52.540;13.290;2022-08-19T10:32:26;24.00;99.90
6439;DHT22;3252;52.540;13.290;2022-08-19T10:34:30;24.00;99.90
6439;DHT22;3252;52.540;13.290;2022-08-19T10:36:35;24.00;99.90
6439;DHT22;3252;52.540;13.290;2022-08-19T10:38:38;24.10;99.90
6439;DHT22;3252;52.540;13.290;2022-08-19T10:40:40;24.10;99.90
6439;DHT22;3252;52.540;13.290;2022-08-19T10:42:42;24.10;99.90
6439;DHT22;3252;52.540;13.290;2022-08-19T10:44:45;24.10;99.90
6439;DHT22;3252;52.540;13.290;2022-08-19T10:46:48;24.00;99.90
6439;DHT22;3252;52.540;13.290;2022-08-19T10:48:50;24.10;99.90
6439;DHT22;3252;52.540;13.290;2022-08-19T10:50:53;24.10;99.90
6439;DHT22;3252;52.540;13.290;2022-08-19T10:53:12;24.00;99.90
6439;DHT22;3252;52.540;13.290;2022-08-19T10:55:17;24.00;99.90
6439;DHT22;3252;52.540;13.290;2022-08-19T10:57:37;24.00;99.90
6439;DHT22;3252;52.540;13.290;2022-08-19T10:59:39;23.90;99.90
6439;DHT22;3252;52.540;13.290;2022-08-19T11:01:43;23.90;99.90
6439;DHT22;3252;52.540;13.290;2022-08-19T11:03:45;23.90;99.90
6439;DHT22;3252;52.540;13.290;2022-08-19T11:06:00;23.90;99.90
6439;DHT22;3252;52.540;13.290;2022-08-19T11:08:03;23.80;99.90
6439;DHT22;3252;52.540;13.290;2022-08-19T11:10:08;23.70;99.90
6439;DHT22;3252;52.540;13.290;2022-08-19T11:12:12;23.70;99.90
6439;DHT22;3252;52.540;13.290;2022-08-19T11:14:17;23.70;99.90
6439;DHT22;3252;52.540;13.290;2022-08-19T11:16:23;23.70;99.90
6439;DHT22;3252;52.540;13.290;2022-08-19T11:18:27;23.70;99.90
6439;DHT22;3252;52.540;13.290;2022-08-19T11:20:29;23.80;99.90
6439;DHT22;3252;52.540;13.290;2022-08-19T11:22:32;23.80;99.90
6439;DHT22;3252;52.540;13.290;2022-08-19T11:24:33;23.80;99.90
6439;DHT22;3252;52.540;13.290;2022-08-19T11:26:37;23.70;99.90
6439;DHT22;3252;52.540;13.290;2022-08-19T11:28:41;23.80;99.90
6439;DHT22;3252;52.540;13.290;2022-08-19T11:30:43;23.80;99.90
6439;DHT22;3252;52.540;13.290;2022-08-19T11:32:45;23.80;99.90
6439;DHT22;3252;52.540;13.290;2022-08-19T11:34:47;23.70;99.90
6439;DHT22;3252;52.540;13.290;2022-08-19T11:36:50;23.70;99.90
6439;DHT22;3252;52.540;13.290;2022-08-19T11:38:53;23.70;99.90
6439;DHT22;3252;52.540;13.290;2022-08-19T11:40:57;23.70;99.90
6439;DHT22;3252;52.540;13.290;2022-08-19T11:42:59;23.70;99.90
6439;DHT22;3252;52.540;13.290;2022-08-19T11:45:03;23.70;99.90
6439;DHT22;3252;52.540;13.290;2022-08-19T11:47:05;23.70;99.90
6439;DHT22;3252;52.540;13.290;2022-08-19T11:49:08;23.70;99.90
6439;DHT22;3252;52.540;13.290;2022-08-19T11:51:12;23.70;99.90
6439;DHT22;3252;52.540;13.290;2022-08-19T11:53:15;23.70;99.90
6439;DHT22;3252;52.540;13.290;2022-08-19T11:55:19;23.70;99.90
6439;DHT22;3252;52.540;13.290;2022-08-19T11:57:21;23.70;99.90
6439;DHT22;3252;52.540;13.290;2022-08-19T11:59:23;23.70;99.90
6439;DHT22;3252;52.540;13.290;2022-08-19T12:01:29;23.70;99.90
6439;DHT22;3252;52.540;13.290;2022-08-19T12:03:32;23.70;99.90
6439;DHT22;3252;52.540;13.290;2022-08-19T12:05:36;23.70;99.90
6439;DHT22;3252;52.540;13.290;2022-08-19T12:07:39;23.80;99.90
6439;DHT22;3252;52.540;13.290;2022-08-19T12:09:42;23.80;99.90
6439;DHT22;3252;52.540;13.290;2022-08-19T12:11:44;23.80;99.90
6439;DHT22;3252;52.540;13.290;2022-08-19T12:13:46;23.80;99.90
6439;DHT22;3252;52.540;13.290;2022-08-19T12:15:48;23.90;99.90
6439;DHT22;3252;52.540;13.290;2022-08-19T12:17:52;23.90;99.90
6439;DHT22;3252;52.540;13.290;2022-08-19T12:19:57;23.90;99.90
6439;DHT22;3252;52.540;13.290;2022-08-19T12:22:00;23.90;99.90
6439;DHT22;3252;52.540;13.290;2022-08-19T12:24:04;23.90;99.90
6439;DHT22;3252;52.540;13.290;2022-08-19T12:26:09;23.80;99.90
6439;DHT22;3252;52.540;13.290;2022-08-19T12:28:11;23.80;99.90
6439;DHT22;3252;52.540;13.290;2022-08-19T12:30:14;23.80;99.90
6439;DHT22;3252;52.540;13.290;2022-08-19T12:32:16;23.80;99.90
6439;DHT22;3252;52.540;13.290;2022-08-19T12:34:20;23.80;99.90
6439;DHT22;3252;52.540;13.290;2022-08-19T12:36:22;23.80;99.90
6439;DHT22;3252;52.540;13.290;2022-08-19T12:38:25;23.80;99.90
6439;DHT22;3252;52.540;13.290;2022-08-19T12:40:27;23.80;99.90
6439;DHT22;3252;52.540;13.290;2022-08-19T12:42:29;23.80;99.90
6439;DHT22;3252;52.540;13.290;2022-08-19T12:44:31;23.90;99.90
6439;DHT22;3252;52.540;13.290;2022-08-19T12:46:33;23.90;99.90
6439;DHT22;3252;52.540;13.290;2022-08-19T12:48:36;23.90;99.90
6439;DHT22;3252;52.540;13.290;2022-08-19T12:50:43;23.90;99.90
6439;DHT22;3252;52.540;13.290;2022-08-19T12:52:45;23.80;99.90
6439;DHT22;3252;52.540;13.290;2022-08-19T12:54:48;23.80;99.90
6439;DHT22;3252;52.540;13.290;2022-08-19T12:56:50;23.80;99.90
6439;DHT22;3252;52.540;13.290;2022-08-19T12:58:52;23.80;99.90
6439;DHT22;3252;52.540;13.290;2022-08-19T13:00:54;23.90;99.90
6439;DHT22;3252;52.540;13.290;2022-08-19T13:02:56;23.90;99.90
6439;DHT22;3252;52.540;13.290;2022-08-19T13:04:58;23.90;99.90
6439;DHT22;3252;52.540;13.290;2022-08-19T13:07:02;23.90;99.90
6439;DHT22;3252;52.540;13.290;2022-08-19T13:09:05;24.00;99.90
6439;DHT22;3252;52.540;13.290;2022-08-19T13:11:09;24.00;99.90
6439;DHT22;3252;52.540;13.290;2022-08-19T13:13:12;24.10;99.90
6439;DHT22;3252;52.540;13.290;2022-08-19T13:15:15;24.10;99.90